Time;durP1;ratioP1;P1;durP2;ratioP2;P2;SDS_P1;SDS_P2;PMS_P1;PMS_P2;Temp;Humidity;BMP_temperature;BMP_pressure;BME280_temperature;BME280_humidity;BME280_pressure;Samples;Min_cycle;Max_cycle;Signal;HPM_P1;HPM_P2
2023/07/19 00:01:16;;;;;;;8.23;7.10;;;19.20;99.90;;;;;;5046596;28;20205;-70
2023/07/19 00:03:42;;;;;;;8.80;7.97;;;19.20;99.90;;;;;;5045784;28;20182;-70
2023/07/19 00:06:07;;;;;;;9.00;8.20;;;19.00;99.90;;;;;;5050987;28;20213;-70
2023/07/19 00:08:33;;;;;;;8.23;7.47;;;18.90;99.90;;;;;;5049268;28;20461;-70
2023/07/19 00:10:59;;;;;;;10.47;8.83;;;18.80;99.90;;;;;;5046183;28;20683;-70
2023/07/19 00:13:25;;;;;;;9.70;8.80;;;18.80;99.90;;;;;;5047992;28;20192;-70
2023/07/19 00:15:50;;;;;;;9.10;8.30;;;18.80;99.90;;;;;;5041567;28;20448;-71
2023/07/19 00:18:16;;;;;;;8.40;7.50;;;18.80;99.90;;;;;;5045512;28;20198;-70
2023/07/19 00:20:41;;;;;;;9.90;8.70;;;18.80;99.90;;;;;;5041661;28;20251;-70
2023/07/19 00:23:07;;;;;;;9.63;8.73;;;18.80;99.90;;;;;;5052200;28;20187;-70
2023/07/19 00:25:33;;;;;;;8.90;8.00;;;18.90;99.90;;;;;;5050691;28;20177;-70
2023/07/19 00:27:59;;;;;;;9.53;8.50;;;19.10;99.90;;;;;;5051750;28;20174;-70
2023/07/19 00:30:24;;;;;;;10.47;9.37;;;19.10;99.90;;;;;;5046576;28;20193;-70
2023/07/19 00:32:50;;;;;;;9.00;8.10;;;19.20;99.90;;;;;;5053451;28;20548;-70
2023/07/19 00:35:15;;;;;;;7.97;7.27;;;19.20;99.90;;;;;;5051538;28;20214;-70
2023/07/19 00:37:43;;;;;;;8.47;7.70;;;19.30;99.90;;;;;;5050775;28;20200;-70
2023/07/19 00:40:09;;;;;;;8.33;7.40;;;19.20;99.90;;;;;;5050791;28;20615;-70
2023/07/19 00:42:34;;;;;;;8.27;7.47;;;19.20;99.90;;;;;;5044272;28;20811;-70
2023/07/19 00:45:00;;;;;;;9.60;7.87;;;19.20;99.90;;;;;;5048590;28;20429;-70
2023/07/19 00:47:27;;;;;;;8.60;7.60;;;19.20;99.90;;;;;;5040963;28;20658;-70
2023/07/19 00:49:52;;;;;;;8.40;7.60;;;19.20;99.90;;;;;;5051588;28;20188;-70
2023/07/19 00:52:19;;;;;;;13.07;8.30;;;19.00;99.90;;;;;;5052071;28;20452;-70
2023/07/19 00:54:45;;;;;;;9.10;7.40;;;18.90;99.90;;;;;;5049370;28;20177;-70
2023/07/19 00:57:11;;;;;;;9.20;8.30;;;18.90;99.90;;;;;;5053711;28;20459;-70
2023/07/19 00:59:38;;;;;;;9.23;7.70;;;18.80;99.90;;;;;;5044425;28;20961;-70
2023/07/19 01:02:04;;;;;;;9.30;8.10;;;18.80;99.90;;;;;;5048812;28;20186;-70
2023/07/19 01:04:30;;;;;;;8.00;7.30;;;18.80;99.90;;;;;;5049043;28;20435;-70
2023/07/19 01:06:55;;;;;;;12.97;8.50;;;18.90;99.90;;;;;;5051444;28;20441;-70
2023/07/19 01:09:23;;;;;;;9.07;7.60;;;18.80;99.90;;;;;;5051403;28;20235;-70
2023/07/19 01:11:48;;;;;;;10.07;8.37;;;18.80;99.90;;;;;;5050636;28;20205;-70
2023/07/19 01:14:14;;;;;;;11.70;8.70;;;18.80;99.90;;;;;;5046627;28;20444;-70
2023/07/19 01:16:39;;;;;;;8.40;7.80;;;18.80;99.90;;;;;;5049275;28;20575;-70
2023/07/19 01:19:06;;;;;;;10.30;7.43;;;18.80;99.90;;;;;;5050199;28;20387;-70
2023/07/19 01:21:31;;;;;;;8.77;8.07;;;18.90;99.90;;;;;;5051861;28;20751;-70
2023/07/19 01:23:57;;;;;;;10.40;7.83;;;19.00;99.90;;;;;;5049748;28;20466;-70
2023/07/19 01:26:22;;;;;;;8.10;7.30;;;19.10;99.90;;;;;;5050061;28;20182;-70
2023/07/19 01:28:48;;;;;;;9.43;8.50;;;19.20;99.90;;;;;;5046749;28;20201;-70
2023/07/19 01:31:17;;;;;;;9.07;7.50;;;19.20;99.90;;;;;;5052187;28;20697;-71
2023/07/19 01:33:42;;;;;;;8.63;7.47;;;19.30;99.90;;;;;;5044650;28;20185;-70
2023/07/19 01:36:08;;;;;;;9.50;7.73;;;19.30;99.90;;;;;;5048506;28;20443;-70
2023/07/19 01:38:34;;;;;;;8.47;7.67;;;19.10;99.90;;;;;;5044221;28;20285;-70
2023/07/19 01:41:00;;;;;;;10.30;8.00;;;18.90;99.90;;;;;;5048551;28;20285;-70
2023/07/19 01:43:26;;;;;;;9.13;8.23;;;18.70;99.90;;;;;;5048898;28;20511;-70
2023/07/19 01:45:51;;;;;;;8.53;7.83;;;18.60;99.90;;;;;;5048010;28;20185;-70
2023/07/19 01:48:17;;;;;;;8.53;7.73;;;18.60;99.90;;;;;;5047823;28;20194;-70
2023/07/19 01:50:47;;;;;;;9.10;7.17;;;18.50;99.90;;;;;;5045583;28;20205;-70
2023/07/19 01:53:13;;;;;;;9.30;8.40;;;18.60;99.90;;;;;;5050190;28;20185;-70
2023/07/19 01:55:39;;;;;;;8.27;7.43;;;18.60;99.90;;;;;;5047005;28;20501;-70
2023/07/19 01:58:05;;;;;;;9.80;8.00;;;18.60;99.90;;;;;;5051711;28;20256;-70
2023/07/19 02:00:30;;;;;;;12.07;8.67;;;18.60;99.90;;;;;;5045971;28;20542;-70
2023/07/19 02:02:56;;;;;;;9.17;7.93;;;18.60;99.90;;;;;;5039293;28;20376;-70
2023/07/19 02:05:21;;;;;;;8.30;7.60;;;18.60;99.90;;;;;;5048666;28;20174;-70
2023/07/19 02:07:48;;;;;;;11.50;10.33;;;18.50;99.90;;;;;;5046655;28;20181;-70
2023/07/19 02:10:13;;;;;;;10.80;8.10;;;18.50;99.90;;;;;;5046263;28;20588;-70
2023/07/19 02:12:39;;;;;;;8.40;7.70;;;18.40;99.90;;;;;;5045861;28;20428;-70
2023/07/19 02:15:05;;;;;;;8.90;8.00;;;18.40;99.90;;;;;;5045550;28;20184;-70
2023/07/19 02:17:31;;;;;;;8.47;7.77;;;18.50;99.90;;;;;;5046925;28;20662;-71
2023/07/19 02:19:56;;;;;;;13.00;9.90;;;18.50;99.90;;;;;;5033726;28;20465;-70
2023/07/19 02:22:23;;;;;;;8.00;7.10;;;18.50;99.90;;;;;;5042394;28;20209;-70
2023/07/19 02:24:48;;;;;;;11.03;8.67;;;18.50;99.90;;;;;;5049060;28;20174;-70
2023/07/19 02:27:14;;;;;;;9.03;7.90;;;18.60;99.90;;;;;;5044197;28;20444;-70
2023/07/19 02:29:39;;;;;;;11.20;8.83;;;18.50;99.90;;;;;;5043171;28;20564;-70
2023/07/19 02:32:05;;;;;;;9.10;8.20;;;18.40;99.90;;;;;;5051836;28;20193;-70
2023/07/19 02:34:31;;;;;;;8.97;8.07;;;18.40;99.90;;;;;;5050501;28;20231;-70
2023/07/19 02:36:57;;;;;;;8.13;7.30;;;18.40;99.90;;;;;;5039484;28;20202;-70
2023/07/19 02:39:26;;;;;;;9.80;8.80;;;18.30;99.90;;;;;;5044933;28;20565;-70
2023/07/19 02:41:52;;;;;;;9.97;8.13;;;18.30;99.90;;;;;;5044189;28;20217;-70
2023/07/19 02:44:17;;;;;;;8.70;8.00;;;18.30;99.90;;;;;;5051017;28;20909;-70
2023/07/19 02:46:43;;;;;;;11.20;8.17;;;18.40;99.90;;;;;;5046952;28;20206;-71
2023/07/19 02:49:08;;;;;;;8.30;7.50;;;18.40;99.90;;;;;;5047927;28;20205;-70
2023/07/19 02:51:34;;;;;;;9.80;8.80;;;18.30;99.90;;;;;;5047016;28;20218;-70
2023/07/19 02:53:59;;;;;;;8.90;8.00;;;18.20;99.90;;;;;;5043162;28;20190;-70
2023/07/19 02:56:25;;;;;;;9.07;7.70;;;18.20;99.90;;;;;;5047947;28;20182;-70
2023/07/19 02:58:50;;;;;;;8.13;7.40;;;18.10;99.90;;;;;;5050615;28;20663;-70
2023/07/19 03:01:16;;;;;;;9.67;8.37;;;18.10;99.90;;;;;;5051482;28;20197;-70
2023/07/19 03:03:41;;;;;;;10.23;8.70;;;18.00;99.90;;;;;;5037893;28;20182;-70
2023/07/19 03:06:09;;;;;;;9.90;8.93;;;18.00;99.90;;;;;;5049727;28;20181;-70
2023/07/19 03:08:36;;;;;;;9.47;8.60;;;18.00;99.90;;;;;;5046455;28;20256;-70
2023/07/19 03:11:02;;;;;;;9.43;8.20;;;18.10;99.90;;;;;;5046194;28;20473;-70
2023/07/19 03:13:27;;;;;;;9.63;8.63;;;18.00;99.90;;;;;;5047822;28;20444;-70
2023/07/19 03:15:53;;;;;;;9.43;8.53;;;18.00;99.90;;;;;;5049703;28;20447;-70
2023/07/19 03:18:18;;;;;;;10.13;9.23;;;18.00;99.90;;;;;;5049635;28;20212;-70
2023/07/19 03:20:44;;;;;;;9.50;8.53;;;18.00;99.90;;;;;;5046952;28;20562;-70
2023/07/19 03:23:09;;;;;;;10.20;9.30;;;18.00;99.90;;;;;;5044817;28;20230;-70
2023/07/19 03:25:35;;;;;;;9.37;8.47;;;18.00;99.90;;;;;;5038476;28;20317;-70
2023/07/19 03:28:01;;;;;;;10.17;8.77;;;18.00;99.90;;;;;;5048544;28;20237;-70
2023/07/19 03:30:26;;;;;;;9.87;8.87;;;17.90;99.90;;;;;;5048279;28;20270;-70
2023/07/19 03:32:52;;;;;;;10.10;8.80;;;17.90;99.90;;;;;;5046537;28;20200;-70
2023/07/19 03:35:18;;;;;;;11.27;7.87;;;17.90;99.90;;;;;;5045038;28;20178;-70
2023/07/19 03:37:44;;;;;;;10.87;8.53;;;17.90;99.90;;;;;;5047280;28;20227;-70
2023/07/19 03:40:13;;;;;;;14.90;8.80;;;17.80;99.90;;;;;;5045047;28;20212;-70
2023/07/19 03:42:39;;;;;;;11.10;8.00;;;17.80;99.90;;;;;;5045528;28;20467;-70
2023/07/19 03:45:06;;;;;;;11.50;8.40;;;17.80;99.90;;;;;;5038607;28;20571;-70
2023/07/19 03:47:32;;;;;;;8.73;7.87;;;17.80;99.90;;;;;;5042180;28;20187;-70
2023/07/19 03:49:57;;;;;;;11.30;8.53;;;17.90;99.90;;;;;;5047306;28;20437;-70
2023/07/19 03:52:23;;;;;;;9.07;7.87;;;17.90;99.90;;;;;;5046167;28;20760;-70
2023/07/19 03:54:50;;;;;;;8.80;8.10;;;17.80;99.90;;;;;;5050569;28;20178;-70
2023/07/19 03:57:16;;;;;;;10.47;7.67;;;17.90;99.90;;;;;;5043770;28;20542;-70
2023/07/19 03:59:41;;;;;;;11.43;8.27;;;17.80;99.90;;;;;;5040005;28;20475;-70
2023/07/19 04:02:07;;;;;;;8.27;7.57;;;17.70;99.90;;;;;;5044300;28;20214;-70
2023/07/19 04:04:32;;;;;;;8.37;7.67;;;17.60;99.90;;;;;;5050196;28;20177;-70
2023/07/19 04:06:58;;;;;;;8.10;7.40;;;17.50;99.90;;;;;;5050360;28;20555;-70
2023/07/19 04:09:24;;;;;;;8.90;8.00;;;17.50;99.90;;;;;;5044948;28;20182;-70
2023/07/19 04:11:49;;;;;;;8.97;8.17;;;17.60;99.90;;;;;;5042342;28;20709;-70
2023/07/19 04:14:15;;;;;;;10.70;8.73;;;17.70;99.90;;;;;;5049468;28;20185;-70
2023/07/19 04:16:41;;;;;;;9.93;8.93;;;17.70;99.90;;;;;;5038083;28;20190;-70
2023/07/19 04:19:07;;;;;;;12.53;10.97;;;17.70;99.90;;;;;;5041247;28;20214;-70
2023/07/19 04:21:32;;;;;;;15.90;14.23;;;17.60;99.90;;;;;;5040874;28;20459;-70
2023/07/19 04:23:58;;;;;;;9.90;8.70;;;17.50;99.90;;;;;;5049974;28;20182;-70
2023/07/19 04:26:23;;;;;;;9.07;8.27;;;17.50;99.90;;;;;;5042066;28;20212;-70
2023/07/19 04:28:49;;;;;;;11.27;10.13;;;17.60;99.90;;;;;;5043210;28;20211;-70
2023/07/19 04:31:14;;;;;;;8.40;7.60;;;17.70;99.90;;;;;;5052006;28;20205;-70
2023/07/19 04:33:41;;;;;;;10.60;8.40;;;17.90;99.90;;;;;;5047911;28;20177;-70
2023/07/19 04:36:14;;;;;;;9.63;8.20;;;18.10;99.90;;;;;;5050996;28;20205;-70
2023/07/19 04:38:40;;;;;;;11.90;8.67;;;18.30;99.90;;;;;;5052211;28;20464;-70
2023/07/19 04:41:06;;;;;;;11.20;7.90;;;18.30;99.90;;;;;;5044374;28;20457;-70
2023/07/19 04:43:32;;;;;;;10.63;9.60;;;18.40;99.90;;;;;;5049283;28;20446;-70
2023/07/19 04:45:57;;;;;;;10.13;8.97;;;18.40;99.90;;;;;;5044472;28;20490;-70
2023/07/19 04:48:23;;;;;;;10.47;9.40;;;18.40;99.90;;;;;;5047276;28;20658;-70
2023/07/19 04:50:56;;;;;;;11.50;8.10;;;18.50;99.90;;;;;;5052191;28;20718;-70
2023/07/19 04:53:25;;;;;;;9.53;8.00;;;18.60;99.90;;;;;;5047537;28;20618;-70
2023/07/19 04:55:52;;;;;;;8.57;7.67;;;18.80;99.90;;;;;;5045844;28;20467;-70
2023/07/19 04:58:18;;;;;;;11.00;8.00;;;19.00;99.90;;;;;;5041938;28;20468;-70
2023/07/19 05:00:44;;;;;;;8.43;7.63;;;19.20;99.90;;;;;;5047900;28;20988;-70
2023/07/19 05:03:11;;;;;;;7.97;7.20;;;19.40;99.90;;;;;;5048504;28;20543;-70
2023/07/19 05:05:37;;;;;;;14.63;7.87;;;19.60;99.90;;;;;;5042978;28;20486;-70
2023/07/19 05:08:04;;;;;;;8.30;7.50;;;19.70;99.90;;;;;;5047123;28;20933;-70
2023/07/19 05:10:36;;;;;;;7.93;7.20;;;19.70;99.90;;;;;;5046008;28;20951;-70
2023/07/19 05:13:04;;;;;;;8.80;8.00;;;19.90;99.90;;;;;;5053263;28;20535;-71
2023/07/19 05:15:29;;;;;;;9.07;7.00;;;20.00;99.90;;;;;;5045473;28;20523;-71
2023/07/19 05:17:55;;;;;;;8.23;7.43;;;20.10;99.90;;;;;;5051050;28;20523;-70
2023/07/19 05:20:21;;;;;;;7.60;6.90;;;20.30;99.90;;;;;;5044744;28;20603;-70
2023/07/19 05:22:46;;;;;;;9.30;7.70;;;20.40;99.90;;;;;;5041291;28;20188;-72
2023/07/19 05:25:12;;;;;;;8.50;7.47;;;20.60;99.90;;;;;;5052482;28;20185;-71
2023/07/19 05:27:37;;;;;;;12.77;8.20;;;20.70;99.90;;;;;;5052034;28;20192;-71
2023/07/19 05:30:04;;;;;;;9.60;8.70;;;20.70;99.90;;;;;;5052001;28;20643;-70
2023/07/19 05:32:29;;;;;;;7.67;6.97;;;20.80;99.90;;;;;;5050380;28;20180;-71
2023/07/19 05:34:56;;;;;;;10.80;7.57;;;21.00;99.90;;;;;;5044333;28;20440;-71
2023/07/19 05:37:21;;;;;;;8.13;7.33;;;21.20;99.90;;;;;;5044701;28;20174;-71
2023/07/19 05:39:48;;;;;;;10.50;7.23;;;21.40;99.90;;;;;;5050937;28;20825;-71
2023/07/19 05:42:14;;;;;;;9.07;6.80;;;21.50;99.90;;;;;;5051885;28;20205;-71
2023/07/19 05:44:39;;;;;;;12.73;7.50;;;21.70;99.90;;;;;;5050136;28;20431;-71
2023/07/19 05:47:05;;;;;;;8.83;7.77;;;21.80;99.90;;;;;;5050677;28;20186;-71
2023/07/19 05:49:31;;;;;;;8.17;7.23;;;22.00;99.90;;;;;;5050181;28;20177;-71
2023/07/19 05:51:56;;;;;;;9.70;7.57;;;22.30;99.90;;;;;;5046733;28;20213;-71
2023/07/19 05:54:22;;;;;;;7.67;6.40;;;22.40;99.90;;;;;;5047828;28;20189;-71
2023/07/19 05:56:47;;;;;;;8.60;7.00;;;22.60;99.90;;;;;;5051638;28;20188;-71
2023/07/19 05:59:13;;;;;;;8.40;6.67;;;22.70;99.90;;;;;;5049975;28;20205;-72
2023/07/19 06:01:39;;;;;;;10.23;6.90;;;22.80;99.90;;;;;;5048066;28;20827;-71
2023/07/19 06:04:05;;;;;;;7.73;5.70;;;22.80;99.90;;;;;;5038100;28;20178;-71
2023/07/19 06:06:33;;;;;;;6.57;5.53;;;22.90;99.90;;;;;;5050865;28;20178;-67
2023/07/19 06:09:01;;;;;;;5.73;4.93;;;23.00;99.90;;;;;;5051091;28;20432;-67
2023/07/19 06:11:26;;;;;;;5.83;5.33;;;23.00;99.90;;;;;;5049330;28;21010;-67
2023/07/19 06:13:52;;;;;;;7.03;6.30;;;23.20;99.90;;;;;;5041532;28;20436;-68
2023/07/19 06:16:17;;;;;;;7.97;5.83;;;23.30;99.90;;;;;;5040527;28;20186;-68
2023/07/19 06:18:43;;;;;;;7.07;5.27;;;23.40;99.90;;;;;;5042840;28;20231;-68
2023/07/19 06:21:08;;;;;;;9.13;6.07;;;23.40;99.90;;;;;;5050349;28;20205;-67
2023/07/19 06:23:34;;;;;;;6.63;5.03;;;23.60;99.90;;;;;;5046155;28;20185;-68
2023/07/19 06:25:59;;;;;;;9.30;5.33;;;23.80;99.90;;;;;;5046893;28;20190;-68
2023/07/19 06:28:25;;;;;;;9.10;5.37;;;24.00;99.90;;;;;;5045811;28;20260;-67
2023/07/19 06:30:51;;;;;;;6.63;5.40;;;24.20;99.90;;;;;;5041425;28;20201;-68
2023/07/19 06:33:17;;;;;;;6.00;5.47;;;24.20;99.90;;;;;;5048544;28;20799;-67
2023/07/19 06:35:43;;;;;;;9.27;6.20;;;24.00;99.90;;;;;;5048675;28;20599;-67
2023/07/19 06:38:09;;;;;;;6.47;5.40;;;24.30;99.90;;;;;;5042102;28;20204;-67
2023/07/19 06:40:34;;;;;;;8.17;7.33;;;24.40;99.90;;;;;;5050618;28;20451;-68
2023/07/19 06:43:00;;;;;;;8.50;5.80;;;24.70;99.90;;;;;;5048129;28;20178;-67
2023/07/19 06:45:25;;;;;;;6.60;5.80;;;24.80;99.90;;;;;;5050579;28;20253;-67
2023/07/19 06:47:51;;;;;;;11.90;5.43;;;25.10;99.90;;;;;;5044314;28;20231;-68
2023/07/19 06:50:17;;;;;;;6.40;5.10;;;25.40;99.90;;;;;;5048459;28;20189;-68
2023/07/19 06:52:43;;;;;;;6.63;5.57;;;25.50;99.90;;;;;;5047608;28;20548;-68
2023/07/19 06:55:09;;;;;;;5.93;5.30;;;25.70;99.90;;;;;;5043659;28;20443;-68
2023/07/19 06:57:34;;;;;;;9.10;5.00;;;25.90;99.90;;;;;;5048700;28;20184;-68
2023/07/19 07:00:00;;;;;;;5.90;5.30;;;26.00;99.90;;;;;;5039625;28;20464;-68
2023/07/19 07:02:25;;;;;;;5.73;5.23;;;26.20;99.90;;;;;;5048153;28;20197;-68
2023/07/19 07:04:51;;;;;;;5.50;4.90;;;26.40;99.90;;;;;;5040244;28;20177;-68
2023/07/19 07:07:19;;;;;;;6.83;5.53;;;26.40;99.90;;;;;;5045222;28;20177;-68
2023/07/19 07:09:45;;;;;;;6.57;5.47;;;26.20;99.90;;;;;;5037210;28;20518;-68
2023/07/19 07:12:11;;;;;;;8.50;6.20;;;26.20;99.90;;;;;;5047264;28;20474;-68
2023/07/19 07:14:37;;;;;;;4.80;4.40;;;26.30;99.90;;;;;;5045992;28;20807;-68
2023/07/19 07:17:04;;;;;;;8.60;4.70;;;26.40;99.90;;;;;;5043833;28;20182;-68
2023/07/19 07:19:30;;;;;;;5.13;4.67;;;26.60;99.90;;;;;;5048332;28;20491;-68
2023/07/19 07:21:55;;;;;;;5.13;4.63;;;26.80;99.90;;;;;;5041725;28;20866;-68
2023/07/19 07:24:21;;;;;;;5.67;5.10;;;26.90;99.90;;;;;;5049913;28;20243;-68
2023/07/19 07:26:46;;;;;;;4.93;3.93;;;26.90;99.90;;;;;;5050497;28;20268;-68
2023/07/19 07:29:12;;;;;;;5.77;3.70;;;26.90;99.90;;;;;;5048696;28;20181;-68
2023/07/19 07:31:37;;;;;;;8.53;4.10;;;26.90;99.90;;;;;;5044724;28;20617;-68
2023/07/19 07:34:03;;;;;;;6.20;4.03;;;27.00;99.90;;;;;;5049277;28;20182;-68
2023/07/19 07:36:28;;;;;;;5.03;3.87;;;27.40;99.90;;;;;;5048014;28;20673;-68
2023/07/19 07:38:54;;;;;;;6.30;4.50;;;27.70;98.80;;;;;;5047733;28;20251;-68
2023/07/19 07:41:19;;;;;;;5.73;4.37;;;28.10;98.20;;;;;;5036247;28;20202;-68
2023/07/19 07:43:45;;;;;;;4.27;3.87;;;28.20;93.20;;;;;;5042918;28;20177;-68
2023/07/19 07:46:10;;;;;;;4.07;3.50;;;28.30;93.30;;;;;;5050073;28;20182;-68
2023/07/19 07:48:36;;;;;;;5.90;3.70;;;28.60;92.10;;;;;;5047322;28;20265;-68
2023/07/19 07:51:01;;;;;;;4.17;3.40;;;29.00;91.00;;;;;;5042487;28;20719;-68
2023/07/19 07:53:27;;;;;;;6.10;3.30;;;29.00;86.00;;;;;;5049838;28;20203;-68
2023/07/19 07:55:53;;;;;;;3.47;3.17;;;29.30;83.40;;;;;;5047728;28;20185;-68
2023/07/19 07:58:19;;;;;;;3.10;2.80;;;29.10;81.10;;;;;;5046670;28;20538;-68
2023/07/19 08:00:45;;;;;;;7.73;3.13;;;29.30;79.30;;;;;;5048704;28;20471;-68
2023/07/19 08:03:10;;;;;;;5.10;3.07;;;29.50;78.20;;;;;;5048289;28;20591;-68
2023/07/19 08:05:40;;;;;;;3.73;2.53;;;29.50;76.10;;;;;;5044383;28;20441;-68
2023/07/19 08:08:06;;;;;;;6.90;3.60;;;29.80;74.10;;;;;;5039970;28;20773;-68
2023/07/19 08:10:32;;;;;;;4.20;2.80;;;29.60;71.10;;;;;;5053177;28;20503;-68
2023/07/19 08:12:58;;;;;;;5.27;2.63;;;29.40;68.40;;;;;;5052903;28;20173;-68
2023/07/19 08:15:24;;;;;;;2.97;2.67;;;29.20;69.10;;;;;;5052431;28;20436;-68
2023/07/19 08:17:50;;;;;;;3.10;2.90;;;29.10;67.40;;;;;;5050668;28;20647;-68
2023/07/19 08:20:15;;;;;;;3.80;2.83;;;29.20;65.70;;;;;;5044871;28;20220;-68
2023/07/19 08:22:41;;;;;;;4.73;2.33;;;29.30;64.30;;;;;;5047778;28;20435;-68
2023/07/19 08:25:07;;;;;;;3.70;2.93;;;29.20;62.50;;;;;;5052090;28;20588;-68
2023/07/19 08:27:33;;;;;;;3.70;3.00;;;29.40;63.80;;;;;;5051172;28;20181;-68
2023/07/19 08:30:00;;;;;;;2.27;2.10;;;29.50;63.00;;;;;;5044592;28;20505;-68
2023/07/19 08:32:25;;;;;;;2.60;2.40;;;29.60;64.10;;;;;;5053313;28;20209;-68
2023/07/19 08:34:51;;;;;;;3.90;2.40;;;29.20;60.90;;;;;;5044182;28;20443;-68
2023/07/19 08:37:17;;;;;;;4.10;2.60;;;29.20;59.30;;;;;;5051683;28;20205;-68
2023/07/19 08:39:42;;;;;;;5.83;2.90;;;29.60;59.60;;;;;;5051456;28;20275;-68
2023/07/19 08:42:08;;;;;;;3.00;2.13;;;29.50;58.00;;;;;;5051099;28;20205;-68
2023/07/19 08:44:33;;;;;;;2.90;2.20;;;29.50;58.50;;;;;;5053234;28;20173;-68
2023/07/19 08:47:00;;;;;;;6.33;2.77;;;29.80;58.80;;;;;;5052591;28;20182;-68
2023/07/19 08:49:25;;;;;;;6.83;2.60;;;30.00;58.50;;;;;;5051066;28;20207;-68
2023/07/19 08:51:51;;;;;;;4.07;2.47;;;29.80;56.60;;;;;;5046669;28;20551;-69
2023/07/19 08:54:17;;;;;;;4.73;2.30;;;30.00;58.00;;;;;;5049444;28;20268;-68
2023/07/19 08:56:44;;;;;;;3.50;2.67;;;30.90;56.70;;;;;;5049625;28;20564;-68
2023/07/19 08:59:10;;;;;;;2.33;2.13;;;31.40;53.80;;;;;;5050980;28;20262;-68
2023/07/19 09:01:35;;;;;;;2.50;2.30;;;31.40;49.80;;;;;;5049906;28;20453;-68
2023/07/19 09:04:08;;;;;;;2.10;2.00;;;31.80;51.60;;;;;;5051776;28;20442;-68
2023/07/19 09:06:34;;;;;;;5.67;2.37;;;32.00;48.90;;;;;;5048534;28;20247;-66
2023/07/19 09:09:01;;;;;;;2.83;2.60;;;31.90;47.90;;;;;;5043358;28;20444;-66
2023/07/19 09:11:26;;;;;;;3.73;2.27;;;31.90;47.50;;;;;;5040106;28;20476;-66
2023/07/19 09:13:56;;;;;;;3.57;2.73;;;32.20;47.60;;;;;;5050654;28;20454;-66
2023/07/19 09:16:32;;;;;;;3.20;2.17;;;32.30;46.30;;;;;;5049403;28;20205;-66
2023/07/19 09:18:59;;;;;;;2.90;2.70;;;32.50;46.20;;;;;;5049972;28;20474;-68
2023/07/19 09:21:43;;;;;;;7.00;2.80;;;32.50;45.90;;;;;;5051609;28;20544;-69
2023/07/19 09:24:10;;;;;;;2.87;2.67;;;32.40;45.10;;;;;;5047553;28;20471;-66
2023/07/19 09:26:56;;;;;;;3.40;2.67;;;32.60;44.80;;;;;;5047766;28;20827;-68
2023/07/19 09:29:22;;;;;;;2.93;2.30;;;32.60;44.90;;;;;;5051387;28;20436;-68
2023/07/19 09:31:53;;;;;;;2.57;2.37;;;33.10;44.50;;;;;;5044574;28;20488;-66
2023/07/19 09:34:48;;;;;;;3.87;2.70;;;33.20;42.50;;;;;;5036798;28;20432;-66
2023/07/19 09:37:19;;;;;;;2.77;2.53;;;32.60;43.00;;;;;;5044131;28;20432;-67
2023/07/19 09:39:45;;;;;;;3.00;2.70;;;32.80;43.60;;;;;;5047232;28;20559;-67
2023/07/19 09:42:13;;;;;;;3.80;3.10;;;32.60;42.40;;;;;;5047307;28;20805;-67
2023/07/19 09:44:39;;;;;;;3.27;3.07;;;32.60;43.50;;;;;;5033556;28;20679;-67
2023/07/19 09:47:08;;;;;;;4.37;2.53;;;32.70;44.60;;;;;;5036831;28;20436;-65
2023/07/19 09:49:36;;;;;;;3.57;2.40;;;33.00;43.10;;;;;;5049509;28;20497;-65
2023/07/19 09:52:03;;;;;;;3.23;2.43;;;33.70;42.00;;;;;;5033212;28;20956;-65
2023/07/19 09:54:31;;;;;;;15.30;13.77;;;34.40;42.10;;;;;;5039053;28;20440;-71
2023/07/19 09:56:58;;;;;;;5.23;3.47;;;34.60;41.90;;;;;;5035923;28;20428;-68
2023/07/19 09:59:27;;;;;;;6.57;4.67;;;34.80;40.10;;;;;;5052882;28;20467;-69
2023/07/19 10:01:53;;;;;;;3.67;3.00;;;35.60;40.00;;;;;;5039340;28;20464;-68
2023/07/19 10:04:23;;;;;;;2.80;2.60;;;36.30;38.90;;;;;;5045134;28;20516;-69
2023/07/19 10:06:50;;;;;;;3.73;2.70;;;35.70;39.70;;;;;;5050337;28;20178;-67
2023/07/19 10:09:24;;;;;;;4.97;2.87;;;35.40;38.50;;;;;;5045174;28;20452;-69
2023/07/19 10:11:50;;;;;;;8.80;5.93;;;34.60;39.10;;;;;;5045023;28;20470;-69
2023/07/19 10:14:27;;;;;;;7.03;4.23;;;34.90;39.30;;;;;;5050848;28;20459;-68
2023/07/19 10:17:00;;;;;;;2.30;1.80;;;35.40;38.70;;;;;;5040220;28;20506;-69
2023/07/19 10:19:26;;;;;;;6.37;2.53;;;35.20;38.30;;;;;;5041746;28;20460;-68
2023/07/19 10:22:04;;;;;;;2.70;2.50;;;36.00;38.60;;;;;;5044253;28;20463;-69
2023/07/19 10:24:35;;;;;;;3.13;2.20;;;37.80;36.70;;;;;;5044451;28;20431;-68
2023/07/19 10:27:05;;;;;;;4.80;3.07;;;38.30;34.80;;;;;;5040916;28;20906;-68
2023/07/19 10:29:38;;;;;;;5.53;4.37;;;38.10;34.40;;;;;;5039551;28;20440;-66
2023/07/19 10:32:05;;;;;;;4.97;2.70;;;39.20;34.20;;;;;;5040501;28;20449;-68
2023/07/19 10:34:31;;;;;;;4.07;2.80;;;39.80;32.80;;;;;;5032588;28;20405;-68
2023/07/19 10:37:03;;;;;;;5.53;2.90;;;39.70;32.80;;;;;;5036512;28;20440;-67
2023/07/19 10:39:30;;;;;;;3.57;3.10;;;38.10;32.70;;;;;;5041702;28;20205;-69
2023/07/19 10:41:56;;;;;;;4.20;2.47;;;35.60;33.80;;;;;;5051928;28;20454;-69
2023/07/19 10:44:22;;;;;;;3.37;3.00;;;36.00;34.80;;;;;;5052316;28;20789;-68
2023/07/19 10:46:48;;;;;;;4.00;3.23;;;38.10;33.00;;;;;;5052508;28;20174;-69
2023/07/19 10:49:14;;;;;;;3.73;2.93;;;38.30;32.90;;;;;;5051588;28;20442;-69
2023/07/19 10:51:51;;;;;;;4.03;3.10;;;39.00;31.80;;;;;;5051295;28;20210;-69
2023/07/19 10:54:16;;;;;;;4.40;2.77;;;39.40;31.90;;;;;;5043009;28;20444;-68
2023/07/19 10:56:42;;;;;;;7.93;2.90;;;38.80;31.80;;;;;;5047100;28;20446;-68
2023/07/19 10:59:08;;;;;;;4.43;3.23;;;37.40;32.10;;;;;;5043946;28;20209;-68
2023/07/19 11:01:33;;;;;;;6.13;3.00;;;37.10;33.40;;;;;;5049204;28;20220;-68
2023/07/19 11:04:03;;;;;;;4.80;2.93;;;36.50;34.30;;;;;;5046055;28;20182;-68
2023/07/19 11:06:29;;;;;;;3.50;2.60;;;36.10;33.60;;;;;;5046119;28;20652;-68
2023/07/19 11:09:03;;;;;;;3.50;3.20;;;36.70;33.30;;;;;;5048276;28;20440;-68
2023/07/19 11:11:28;;;;;;;4.93;2.80;;;38.80;32.60;;;;;;5049710;28;20472;-68
2023/07/19 11:13:54;;;;;;;5.30;3.50;;;40.90;30.10;;;;;;5045984;28;20942;-68
2023/07/19 11:16:21;;;;;;;3.77;3.47;;;39.80;29.50;;;;;;5045170;28;20181;-67
2023/07/19 11:18:46;;;;;;;6.23;2.70;;;37.80;31.10;;;;;;5039665;28;20259;-68
2023/07/19 11:21:23;;;;;;;7.83;3.97;;;35.40;33.30;;;;;;5047510;28;21078;-68
2023/07/19 11:23:48;;;;;;;6.70;3.67;;;35.00;34.00;;;;;;5049002;28;20607;-68
2023/07/19 11:26:14;;;;;;;3.57;3.20;;;34.60;34.80;;;;;;5049932;28;20507;-68
2023/07/19 11:28:53;;;;;;;3.80;3.03;;;34.10;36.10;;;;;;5048781;28;20189;-68
2023/07/19 11:31:35;;;;;;;3.73;2.90;;;34.30;35.60;;;;;;5046428;28;21000;-68
2023/07/19 11:34:07;;;;;;;14.73;3.70;;;34.40;35.40;;;;;;5046372;28;20489;-68
2023/07/19 11:36:40;;;;;;;4.10;3.30;;;34.60;35.80;;;;;;5048119;28;20442;-68
2023/07/19 11:39:20;;;;;;;3.77;2.90;;;34.20;35.50;;;;;;5047139;28;20541;-71
2023/07/19 11:41:46;;;;;;;2.87;2.60;;;33.40;36.10;;;;;;5051599;28;20538;-71
2023/07/19 11:44:16;;;;;;;4.90;3.30;;;33.00;36.30;;;;;;5052855;28;20440;-71
2023/07/19 11:46:41;;;;;;;3.50;3.20;;;33.20;37.30;;;;;;5052251;28;20438;-68
2023/07/19 11:49:09;;;;;;;4.70;3.60;;;34.00;36.70;;;;;;5052475;28;20801;-68
2023/07/19 11:51:36;;;;;;;4.00;3.47;;;33.90;36.90;;;;;;5053605;28;20243;-69
2023/07/19 11:54:01;;;;;;;11.17;4.60;;;33.70;36.30;;;;;;5043912;28;20441;-68
2023/07/19 11:56:28;;;;;;;5.73;3.80;;;33.50;36.90;;;;;;5044273;28;20801;-68
2023/07/19 11:58:53;;;;;;;4.17;3.40;;;33.20;35.80;;;;;;5050182;28;20199;-68
2023/07/19 12:01:20;;;;;;;5.10;3.20;;;33.80;35.70;;;;;;5046243;28;20456;-68
2023/07/19 12:03:46;;;;;;;3.73;3.23;;;35.00;35.20;;;;;;5050885;28;20769;-68
2023/07/19 12:06:14;;;;;;;3.40;3.10;;;35.40;34.90;;;;;;5052229;28;20435;-69
2023/07/19 12:08:40;;;;;;;3.90;3.40;;;36.60;33.50;;;;;;5052303;28;20236;-68
2023/07/19 12:11:06;;;;;;;4.37;3.13;;;39.80;32.00;;;;;;5052437;28;20554;-68
2023/07/19 12:13:34;;;;;;;3.57;3.27;;;40.70;30.30;;;;;;5042882;28;20437;-68
2023/07/19 12:16:00;;;;;;;5.07;3.57;;;41.40;29.20;;;;;;5046138;28;20494;-71
2023/07/19 12:18:26;;;;;;;5.80;5.30;;;40.80;30.40;;;;;;5053160;28;20812;-68
2023/07/19 12:20:52;;;;;;;9.93;3.20;;;40.70;30.00;;;;;;5046237;28;20194;-69
2023/07/19 12:23:18;;;;;;;4.70;3.67;;;39.30;30.40;;;;;;5052724;28;20428;-70
2023/07/19 12:25:43;;;;;;;7.90;3.17;;;38.80;30.40;;;;;;5049388;28;20181;-71
2023/07/19 12:28:09;;;;;;;3.70;3.30;;;37.70;31.50;;;;;;5051755;28;20177;-71
2023/07/19 12:30:35;;;;;;;7.37;3.60;;;38.20;31.30;;;;;;5052631;28;20336;-68
2023/07/19 12:33:01;;;;;;;4.40;3.87;;;38.30;30.10;;;;;;5052646;28;20185;-68
2023/07/19 12:35:26;;;;;;;8.40;4.37;;;37.10;31.70;;;;;;5051800;28;20431;-72
2023/07/19 12:37:52;;;;;;;4.03;3.63;;;36.50;32.30;;;;;;5050961;28;20292;-73
2023/07/19 12:40:18;;;;;;;4.30;3.97;;;35.70;32.80;;;;;;5047915;28;20630;-74
2023/07/19 12:42:43;;;;;;;5.20;3.70;;;35.40;33.60;;;;;;5040565;28;20253;-69